createdAt,value
2022-10-29T00:02:08.890Z,22.45
2022-10-29T00:04:43.211Z,25.02
2022-10-29T00:07:10.311Z,23.85
2022-10-29T00:09:37.461Z,28.98
2022-10-29T00:12:11.683Z,27.33
2022-10-29T00:14:38.979Z,29.95
2022-10-29T00:17:12.724Z,30.55
2022-10-29T00:19:39.982Z,32.70
2022-10-29T00:22:07.111Z,33.45
2022-10-29T00:24:40.697Z,28.38
2022-10-29T00:27:07.872Z,29.27
2022-10-29T00:29:34.981Z,29.92
2022-10-29T00:32:08.744Z,23.60
2022-10-29T00:34:42.665Z,23.17
2022-10-29T00:37:16.828Z,19.20
2022-10-29T00:39:44.076Z,24.27
2022-10-29T00:42:24.962Z,17.98
2022-10-29T00:44:52.200Z,20.05
2022-10-29T00:47:40.972Z,14.73
2022-10-29T00:50:09.777Z,10.55
2022-10-29T00:52:39.740Z,10.23
2022-10-29T00:55:14.673Z,9.85
2022-10-29T00:57:43.687Z,10.65
2022-10-29T01:00:17.735Z,10.15
2022-10-29T01:02:48.510Z,8.63
2022-10-29T01:05:17.292Z,10.00
2022-10-29T01:07:50.756Z,10.32
2022-10-29T01:10:22.086Z,9.57
2022-10-29T01:13:04.840Z,8.18
2022-10-29T01:15:45.000Z,7.85
2022-10-29T01:18:18.697Z,7.93
2022-10-29T01:21:02.218Z,8.88
2022-10-29T01:23:35.727Z,7.32
2022-10-29T01:26:15.494Z,7.35
2022-10-29T01:29:01.786Z,7.68
2022-10-29T01:31:42.609Z,5.85
2022-10-29T01:34:16.940Z,7.10
2022-10-29T01:37:10.636Z,8.27
2022-10-29T01:39:37.920Z,7.30
2022-10-29T01:42:18.607Z,8.18
2022-10-29T01:44:54.871Z,8.27
2022-10-29T01:47:29.616Z,7.53
2022-10-29T01:50:04.001Z,8.65
2022-10-29T01:52:39.655Z,8.05
2022-10-29T01:55:07.216Z,8.60
2022-10-29T02:00:11.783Z,5.57
2022-10-29T02:02:57.727Z,9.32
2022-10-29T02:05:43.704Z,7.40
2022-10-29T02:08:29.542Z,8.45
2022-10-29T02:11:18.762Z,8.77
2022-10-29T02:13:50.848Z,8.60
2022-10-29T02:16:24.698Z,6.70
2022-10-29T02:18:53.096Z,7.55
2022-10-29T02:21:27.874Z,8.82
2022-10-29T02:23:55.062Z,8.48
2022-10-29T02:26:22.558Z,7.18
2022-10-29T02:28:56.734Z,7.53
2022-10-29T02:31:24.001Z,7.65
2022-10-29T02:33:57.772Z,7.60
2022-10-29T02:36:31.655Z,8.23
2022-10-29T02:39:05.845Z,7.97
2022-10-29T02:41:33.030Z,8.40
2022-10-29T02:44:00.282Z,7.68
2022-10-29T02:46:33.750Z,7.63
2022-10-29T02:49:01.022Z,7.80
2022-10-29T02:51:28.158Z,8.90
2022-10-29T02:54:01.753Z,7.88
2022-10-29T02:56:28.946Z,6.47
2022-10-29T02:59:05.218Z,6.45
2022-10-29T03:01:35.046Z,9.10
2022-10-29T03:04:02.247Z,7.28
2022-10-29T03:06:36.746Z,7.47
2022-10-29T03:09:04.426Z,6.90
2022-10-29T03:11:38.887Z,7.10
2022-10-29T03:14:06.070Z,7.75
2022-10-29T03:16:33.225Z,7.00
2022-10-29T03:19:06.744Z,7.45
2022-10-29T03:21:34.015Z,6.75
2022-10-29T03:24:07.829Z,7.72
2022-10-29T03:26:35.012Z,7.70
2022-10-29T03:29:02.248Z,6.22
2022-10-29T03:31:35.766Z,7.55
2022-10-29T03:34:03.004Z,6.45
2022-10-29T03:36:44.875Z,6.97
2022-10-29T03:39:18.697Z,6.28
2022-10-29T03:41:52.851Z,7.20
2022-10-29T03:44:20.036Z,6.38
2022-10-29T03:46:47.291Z,5.18
2022-10-29T03:49:20.734Z,7.55
2022-10-29T03:51:47.846Z,6.97
2022-10-29T03:54:21.901Z,7.05
2022-10-29T03:56:49.016Z,6.93
2022-10-29T03:59:16.217Z,7.03
2022-10-29T04:01:49.978Z,5.68
2022-10-29T04:04:17.211Z,6.45
2022-10-29T04:06:44.298Z,6.93
2022-10-29T04:09:17.853Z,5.38
2022-10-29T04:11:45.039Z,6.25
2022-10-29T04:14:18.942Z,6.43
2022-10-29T04:16:46.027Z,5.93
2022-10-29T04:19:13.210Z,6.63
2022-10-29T04:26:48.112Z,5.45
2022-10-29T04:30:15.052Z,5.60
2022-10-29T04:32:48.853Z,4.93
2022-10-29T04:35:22.815Z,6.22
2022-10-29T04:38:03.791Z,6.28
2022-10-29T04:40:30.992Z,5.53
2022-10-29T04:42:58.348Z,5.10
2022-10-29T04:45:32.879Z,4.93
2022-10-29T04:48:01.161Z,4.68
2022-10-29T04:50:36.794Z,5.32
2022-10-29T04:53:04.651Z,5.80
2022-10-29T04:55:32.134Z,4.70
2022-10-29T04:58:05.820Z,6.68
2022-10-29T05:00:33.450Z,4.63
2022-10-29T05:03:00.734Z,5.13
2022-10-29T05:05:34.911Z,4.90
2022-10-29T05:08:02.800Z,5.43
2022-10-29T05:10:38.014Z,4.50
2022-10-29T05:13:07.201Z,4.63
2022-10-29T05:15:34.935Z,4.90
2022-10-29T05:18:08.788Z,3.80
2022-10-29T05:20:36.403Z,4.32
2022-10-29T05:25:37.832Z,3.10
2022-10-29T05:28:06.534Z,3.80
2022-10-29T05:30:34.601Z,5.05
2022-10-29T05:33:08.778Z,4.10
2022-10-29T05:35:42.778Z,4.13
2022-10-29T05:38:16.913Z,3.90
2022-10-29T05:40:45.202Z,3.60
2022-10-29T05:43:13.470Z,5.45
2022-10-29T05:45:47.784Z,4.15
2022-10-29T05:48:14.966Z,4.32
2022-10-29T05:50:48.834Z,3.67
2022-10-29T05:53:16.038Z,3.40
2022-10-29T05:55:43.378Z,4.68
2022-10-29T05:58:18.759Z,4.70
2022-10-29T06:00:46.401Z,5.05
2022-10-29T06:05:46.900Z,4.85
2022-10-29T06:08:14.137Z,6.18
2022-10-29T06:10:47.823Z,4.85
2022-10-29T06:13:16.578Z,5.38
2022-10-29T06:15:43.837Z,6.55
2022-10-29T06:18:17.809Z,4.70
2022-10-29T06:20:45.092Z,5.65
2022-10-29T06:23:12.402Z,5.53
2022-10-29T06:25:45.795Z,5.53
2022-10-29T06:28:18.934Z,5.25
2022-10-29T06:30:56.919Z,5.07
2022-10-29T06:33:24.265Z,5.07
2022-10-29T06:36:14.815Z,6.82
2022-10-29T06:38:42.183Z,5.75
2022-10-29T06:41:09.931Z,6.55
2022-10-29T06:43:43.792Z,5.32
2022-10-29T06:46:11.213Z,4.32
2022-10-29T06:48:44.887Z,5.53
2022-10-29T06:51:12.052Z,4.68
2022-10-29T06:53:39.270Z,6.22
2022-10-29T06:56:13.106Z,4.47
2022-10-29T06:58:40.326Z,4.63
2022-10-29T07:01:13.779Z,4.28
2022-10-29T07:03:41.161Z,4.65
2022-10-29T07:06:14.856Z,5.50
2022-10-29T07:08:42.200Z,4.18
2022-10-29T07:11:09.398Z,4.07
2022-10-29T07:13:42.840Z,4.93
2022-10-29T07:16:10.289Z,4.93
2022-10-29T07:18:37.530Z,4.82
2022-10-29T07:21:11.786Z,4.55
2022-10-29T07:23:38.969Z,4.88
2022-10-29T07:26:12.903Z,5.03
2022-10-29T07:28:40.066Z,4.80
2022-10-29T07:31:07.975Z,4.82
2022-10-29T07:33:41.972Z,4.38
2022-10-29T07:36:28.738Z,4.90
2022-10-29T07:39:02.807Z,4.78
2022-10-29T07:41:30.087Z,5.60
2022-10-29T07:44:03.864Z,4.60
2022-10-29T07:46:31.081Z,4.82
2022-10-29T07:48:58.405Z,4.78
2022-10-29T07:51:31.951Z,4.68
2022-10-29T07:53:59.034Z,4.68
2022-10-29T07:56:26.238Z,5.15
2022-10-29T07:58:59.849Z,5.32
2022-10-29T08:01:27.058Z,4.63
2022-10-29T08:04:00.897Z,4.95
2022-10-29T08:06:28.008Z,5.85
2022-10-29T08:09:02.894Z,5.03
2022-10-29T08:11:31.596Z,5.07
2022-10-29T08:13:59.201Z,5.35
2022-10-29T08:19:00.004Z,5.15
2022-10-29T08:21:33.914Z,6.13
2022-10-29T08:24:01.139Z,4.57
2022-10-29T08:26:28.275Z,4.40
2022-10-29T08:29:02.026Z,4.57
2022-10-29T08:31:29.266Z,4.93
2022-10-29T08:33:56.407Z,5.10
2022-10-29T08:36:29.858Z,5.10
2022-10-29T08:38:57.095Z,4.88
2022-10-29T08:41:36.916Z,5.10
2022-10-29T08:44:11.553Z,4.43
2022-10-29T08:46:48.926Z,4.78
2022-10-29T08:49:20.764Z,4.55
2022-10-29T08:52:23.822Z,4.40
2022-10-29T08:54:54.753Z,4.30
2022-10-29T08:57:29.874Z,5.03
2022-10-29T09:00:00.233Z,5.30
2022-10-29T09:02:27.572Z,5.03
2022-10-29T09:05:01.882Z,5.03
2022-10-29T09:07:37.935Z,4.68
2022-10-29T09:10:29.883Z,6.10
2022-10-29T09:13:09.284Z,4.80
2022-10-29T09:15:51.170Z,5.10
2022-10-29T09:18:39.361Z,4.70
2022-10-29T09:21:26.042Z,6.53
2022-10-29T09:24:12.078Z,5.70
2022-10-29T09:26:45.861Z,5.25
2022-10-29T09:29:31.582Z,5.32
2022-10-29T09:32:25.832Z,4.50
2022-10-29T09:35:02.449Z,5.55
2022-10-29T09:38:00.330Z,5.43
2022-10-29T09:40:36.169Z,5.55
2022-10-29T09:43:18.863Z,5.63
2022-10-29T09:46:01.600Z,5.38
2022-10-29T09:48:44.005Z,5.10
2022-10-29T09:51:26.827Z,6.05
2022-10-29T09:54:00.987Z,6.18
2022-10-29T09:56:28.167Z,5.72
2022-10-29T09:58:58.377Z,5.95
2022-10-29T10:01:31.898Z,5.25
2022-10-29T10:04:06.777Z,5.65
2022-10-29T10:06:53.998Z,5.88
2022-10-29T10:09:27.776Z,4.88
2022-10-29T10:11:58.952Z,5.68
2022-10-29T10:14:33.800Z,6.68
2022-10-29T10:17:01.707Z,5.75
2022-10-29T10:19:36.785Z,5.43
2022-10-29T10:22:05.503Z,5.65
2022-10-29T10:24:40.767Z,5.43
2022-10-29T10:27:38.905Z,5.75
2022-10-29T10:30:12.809Z,5.38
2022-10-29T10:32:40.102Z,6.15
2022-10-29T10:35:32.782Z,6.05
2022-10-29T10:38:11.928Z,5.85
2022-10-29T10:40:45.790Z,5.40
2022-10-29T10:43:20.829Z,4.97
2022-10-29T10:45:59.811Z,5.72
2022-10-29T10:48:33.383Z,5.72
2022-10-29T10:51:17.909Z,5.70
2022-10-29T10:53:45.181Z,5.30
2022-10-29T10:56:26.812Z,6.85
2022-10-29T10:59:04.040Z,6.10
2022-10-29T11:01:45.882Z,5.82
2022-10-29T11:04:26.131Z,6.15
2022-10-29T11:07:00.850Z,5.70
2022-10-29T11:09:31.204Z,6.35
2022-10-29T11:12:07.848Z,6.10
2022-10-29T11:14:38.145Z,5.70
2022-10-29T11:17:14.830Z,5.25
2022-10-29T11:19:45.886Z,5.35
2022-10-29T11:22:23.869Z,5.20
2022-10-29T11:24:58.455Z,5.75
2022-10-29T11:27:50.834Z,5.50
2022-10-29T11:30:18.951Z,5.93
2022-10-29T11:33:02.142Z,6.35
2022-10-29T11:35:49.014Z,6.55
2022-10-29T11:38:31.859Z,6.18
2022-10-29T11:41:15.249Z,5.20
2022-10-29T11:43:48.831Z,5.93
2022-10-29T11:46:34.685Z,5.55
2022-10-29T11:49:11.835Z,5.57
2022-10-29T11:51:57.764Z,7.38
2022-10-29T11:54:35.836Z,6.63
2022-10-29T11:57:24.938Z,5.78
2022-10-29T12:00:10.962Z,4.93
2022-10-29T12:02:47.055Z,6.07
2022-10-29T12:05:35.878Z,7.32
2022-10-29T12:10:42.862Z,5.95
2022-10-29T12:13:18.756Z,6.90
2022-10-29T12:15:57.938Z,6.57
2022-10-29T12:18:43.678Z,6.40
2022-10-29T12:21:20.985Z,5.82
2022-10-29T12:23:48.193Z,8.57
2022-10-29T12:26:19.129Z,5.70
2022-10-29T12:28:55.897Z,6.50
2022-10-29T12:31:27.163Z,6.05
2022-10-29T12:34:26.925Z,5.85
2022-10-29T12:37:14.019Z,6.97
2022-10-29T12:39:49.600Z,6.45
2022-10-29T12:42:26.867Z,7.45
2022-10-29T12:45:06.005Z,6.07
2022-10-29T12:47:39.861Z,6.05
2022-10-29T12:50:15.111Z,6.68
2022-10-29T12:52:56.160Z,6.45
2022-10-29T12:55:30.052Z,6.28
2022-10-29T12:57:57.295Z,5.70
2022-10-29T13:00:31.032Z,6.00
2022-10-29T13:02:58.805Z,6.10
2022-10-29T13:05:26.186Z,5.60
2022-10-29T13:08:08.923Z,6.07
2022-10-29T13:10:35.995Z,5.82
2022-10-29T13:13:14.087Z,5.22
2022-10-29T13:15:44.122Z,5.55
2022-10-29T13:18:27.149Z,6.40
2022-10-29T13:20:55.176Z,6.90
2022-10-29T13:23:22.383Z,6.93
2022-10-29T13:25:56.969Z,6.35
2022-10-29T13:28:24.213Z,5.75
2022-10-29T13:30:59.038Z,6.72
2022-10-29T13:33:29.423Z,7.80
2022-10-29T13:36:10.355Z,6.65
2022-10-29T13:39:07.564Z,6.90
2022-10-29T13:41:49.034Z,7.15
2022-10-29T13:44:19.069Z,6.65
2022-10-29T13:47:00.143Z,6.97
2022-10-29T13:49:30.448Z,6.90
2022-10-29T13:52:06.914Z,6.88
2022-10-29T13:54:34.217Z,7.15
2022-10-29T13:57:04.230Z,5.80
2022-10-29T13:59:47.920Z,6.70
2022-10-29T14:02:24.512Z,7.22
2022-10-29T14:05:01.966Z,5.80
2022-10-29T14:07:31.754Z,6.53
2022-10-29T14:10:08.116Z,7.60
2022-10-29T14:12:38.297Z,7.18
2022-10-29T14:15:05.530Z,5.68
2022-10-29T14:17:39.121Z,7.07
2022-10-29T14:20:06.468Z,6.55
2022-10-29T14:22:36.514Z,6.00
2022-10-29T14:25:14.420Z,6.25
2022-10-29T14:27:45.268Z,7.65
2022-10-29T14:30:26.004Z,6.38
2022-10-29T14:32:53.168Z,6.72
2022-10-29T14:35:20.367Z,6.55
2022-10-29T14:37:55.391Z,6.20
2022-10-29T14:40:36.883Z,6.32
2022-10-29T14:43:05.342Z,6.38
2022-10-29T14:45:38.933Z,6.97
2022-10-29T14:48:10.512Z,6.43
2022-10-29T14:50:44.087Z,6.75
2022-10-29T14:53:23.708Z,6.50
2022-10-29T14:55:58.014Z,5.68
2022-10-29T14:58:30.242Z,7.57
2022-10-29T15:00:57.495Z,6.25
2022-10-29T15:03:33.114Z,6.47
2022-10-29T15:06:18.888Z,6.72
2022-10-29T15:08:47.108Z,6.43
2022-10-29T15:11:40.888Z,5.80
2022-10-29T15:14:32.789Z,5.95
2022-10-29T15:17:08.007Z,6.78
2022-10-29T15:19:35.587Z,6.47
2022-10-29T15:24:35.877Z,5.97
2022-10-29T15:27:04.810Z,6.85
2022-10-29T15:29:43.289Z,6.38
2022-10-29T15:32:14.924Z,7.28
2022-10-29T15:34:53.883Z,6.65
2022-10-29T15:37:34.108Z,6.95
2022-10-29T15:40:25.902Z,7.65
2022-10-29T15:42:53.983Z,8.55
2022-10-29T15:45:29.926Z,7.30
2022-10-29T15:47:59.367Z,7.03
2022-10-29T15:50:44.941Z,7.55
2022-10-29T15:53:14.180Z,6.50
2022-10-29T15:55:41.672Z,6.93
2022-10-29T16:00:42.504Z,6.82
2022-10-29T16:05:44.189Z,6.22
2022-10-29T16:08:29.893Z,6.13
2022-10-29T16:11:04.101Z,6.47
2022-10-29T16:13:37.918Z,6.53
2022-10-29T16:16:11.980Z,8.38
2022-10-29T16:18:45.939Z,7.15
2022-10-29T16:21:15.306Z,7.03
2022-10-29T16:23:49.051Z,7.80
2022-10-29T16:26:17.003Z,6.75
2022-10-29T16:28:44.153Z,7.55
2022-10-29T16:31:27.017Z,6.65
2022-10-29T16:33:55.389Z,7.07
2022-10-29T16:36:28.969Z,6.78
2022-10-29T16:39:08.928Z,7.68
2022-10-29T16:41:43.156Z,7.57
2022-10-29T16:44:10.279Z,7.13
2022-10-29T16:46:37.618Z,7.68
2022-10-29T16:49:11.029Z,7.13
2022-10-29T16:51:38.197Z,7.47
2022-10-29T16:54:05.325Z,7.50
2022-10-29T16:56:39.021Z,7.18
2022-10-29T16:59:08.197Z,6.32
2022-10-29T17:01:35.419Z,7.90
2022-10-29T17:04:09.464Z,7.32
2022-10-29T17:06:43.053Z,8.18
2022-10-29T17:09:10.382Z,7.45
2022-10-29T17:11:37.568Z,7.13
2022-10-29T17:14:10.919Z,8.20
2022-10-29T17:16:38.472Z,7.30
2022-10-29T17:21:39.438Z,7.55
2022-10-29T17:26:40.280Z,7.80
2022-10-29T17:29:07.370Z,7.25
2022-10-29T17:31:41.152Z,8.13
2022-10-29T17:34:08.692Z,9.52
2022-10-29T17:39:21.337Z,8.65
2022-10-29T17:41:56.117Z,7.35
2022-10-29T17:44:23.614Z,8.30
2022-10-29T17:46:50.712Z,8.95
2022-10-29T17:49:23.963Z,7.75
2022-10-29T17:51:51.291Z,8.35
2022-10-29T17:54:18.456Z,7.55
2022-10-29T17:56:51.947Z,9.07
2022-10-29T17:59:19.362Z,6.57
2022-10-29T18:01:53.063Z,7.70
2022-10-29T18:04:20.435Z,7.65
2022-10-29T18:06:47.516Z,6.70
2022-10-29T18:09:21.424Z,8.60
2022-10-29T18:11:49.960Z,7.90
2022-10-29T18:14:17.080Z,7.72
2022-10-29T18:16:51.050Z,8.35
2022-10-29T18:19:18.405Z,8.05
2022-10-29T18:21:52.167Z,7.57
2022-10-29T18:24:21.091Z,8.30
2022-10-29T18:26:51.407Z,7.40
2022-10-29T18:29:25.190Z,8.85
2022-10-29T18:31:52.368Z,8.27
2022-10-29T18:34:19.616Z,7.97
2022-10-29T18:36:54.097Z,8.23
2022-10-29T18:39:28.249Z,9.10
2022-10-29T18:42:02.118Z,7.63
2022-10-29T18:44:29.539Z,7.93
2022-10-29T18:46:56.650Z,8.52
2022-10-29T18:49:31.045Z,8.00
2022-10-29T18:51:58.210Z,8.98
2022-10-29T18:54:32.183Z,8.77
2022-10-29T18:56:59.428Z,9.38
2022-10-29T18:59:26.686Z,8.07
2022-10-29T19:02:00.363Z,8.38
2022-10-29T19:04:28.000Z,7.82
2022-10-29T19:09:30.107Z,8.13
2022-10-29T19:11:59.498Z,7.93
2022-10-29T19:14:33.085Z,8.52
2022-10-29T19:17:00.322Z,7.88
2022-10-29T19:19:34.104Z,8.88
2022-10-29T19:22:01.383Z,8.60
2022-10-29T19:24:28.478Z,7.95
2022-10-29T19:27:02.122Z,9.05
2022-10-29T19:29:29.380Z,9.27
2022-10-29T19:32:03.065Z,8.27
2022-10-29T19:34:30.331Z,9.23
2022-10-29T19:37:11.179Z,7.80
2022-10-29T19:39:44.974Z,8.98
2022-10-29T19:42:19.103Z,8.73
2022-10-29T19:44:46.384Z,7.90
2022-10-29T19:47:13.486Z,10.38
2022-10-29T19:49:47.099Z,9.73
2022-10-29T19:52:14.198Z,9.38
2022-10-29T19:54:41.471Z,7.95
2022-10-29T19:57:15.110Z,9.25
2022-10-29T19:59:42.466Z,9.95
2022-10-29T20:02:10.924Z,8.82
2022-10-29T20:04:52.048Z,9.63
2022-10-29T20:07:19.154Z,11.18
2022-10-29T20:09:53.256Z,8.63
2022-10-29T20:12:20.433Z,9.35
2022-10-29T20:14:47.622Z,9.20
2022-10-29T20:17:21.094Z,8.32
2022-10-29T20:19:48.612Z,7.53
2022-10-29T20:22:22.188Z,8.35
2022-10-29T20:24:49.373Z,9.07
2022-10-29T20:27:16.561Z,9.45
2022-10-29T20:29:54.251Z,8.50
2022-10-29T20:32:28.071Z,10.55
